sensor_id;sensor_type;location;lat;lon;timestamp;P1;durP1;ratioP1;P2;durP2;ratioP2
4122;SDS011;2075;51.062;6.920;2023-12-20T00:01:40;12.33;;;9.33;;
4122;SDS011;2075;51.062;6.920;2023-12-20T00:04:25;12.57;;;8.97;;
4122;SDS011;2075;51.062;6.920;2023-12-20T00:07:11;14.17;;;10.47;;
4122;SDS011;2075;51.062;6.920;2023-12-20T00:09:56;15.10;;;9.77;;
4122;SDS011;2075;51.062;6.920;2023-12-20T00:12:41;16.63;;;10.10;;
4122;SDS011;2075;51.062;6.920;2023-12-20T00:15:28;13.90;;;9.70;;
4122;SDS011;2075;51.062;6.920;2023-12-20T00:18:14;13.63;;;9.47;;
4122;SDS011;2075;51.062;6.920;2023-12-20T00:20:59;13.83;;;8.40;;
4122;SDS011;2075;51.062;6.920;2023-12-20T00:23:45;4.80;;;3.60;;
4122;SDS011;2075;51.062;6.920;2023-12-20T00:26:30;5.23;;;3.57;;
4122;SDS011;2075;51.062;6.920;2023-12-20T00:29:16;8.63;;;3.67;;
4122;SDS011;2075;51.062;6.920;2023-12-20T00:32:03;6.57;;;3.37;;
4122;SDS011;2075;51.062;6.920;2023-12-20T00:34:49;4.20;;;3.27;;
4122;SDS011;2075;51.062;6.920;2023-12-20T00:37:34;5.50;;;3.33;;
4122;SDS011;2075;51.062;6.920;2023-12-20T00:40:20;3.93;;;3.37;;
4122;SDS011;2075;51.062;6.920;2023-12-20T00:43:05;6.33;;;3.97;;
4122;SDS011;2075;51.062;6.920;2023-12-20T00:45:51;4.10;;;3.70;;
4122;SDS011;2075;51.062;6.920;2023-12-20T00:48:38;4.80;;;3.60;;
4122;SDS011;2075;51.062;6.920;2023-12-20T00:51:26;5.27;;;3.70;;
4122;SDS011;2075;51.062;6.920;2023-12-20T00:54:11;14.60;;;4.60;;
4122;SDS011;2075;51.062;6.920;2023-12-20T00:56:57;10.20;;;4.77;;
4122;SDS011;2075;51.062;6.920;2023-12-20T00:59:43;7.17;;;4.80;;
4122;SDS011;2075;51.062;6.920;2023-12-20T01:02:29;5.40;;;4.33;;
4122;SDS011;2075;51.062;6.920;2023-12-20T01:05:16;6.53;;;4.37;;
4122;SDS011;2075;51.062;6.920;2023-12-20T01:08:03;12.80;;;5.27;;
4122;SDS011;2075;51.062;6.920;2023-12-20T01:10:49;9.20;;;5.40;;
4122;SDS011;2075;51.062;6.920;2023-12-20T01:13:34;9.90;;;5.40;;
4122;SDS011;2075;51.062;6.920;2023-12-20T01:16:20;9.00;;;5.73;;
4122;SDS011;2075;51.062;6.920;2023-12-20T01:19:05;12.57;;;5.30;;
4122;SDS011;2075;51.062;6.920;2023-12-20T01:21:53;11.37;;;5.43;;
4122;SDS011;2075;51.062;6.920;2023-12-20T01:24:39;12.17;;;5.93;;
4122;SDS011;2075;51.062;6.920;2023-12-20T01:27:24;8.80;;;6.13;;
4122;SDS011;2075;51.062;6.920;2023-12-20T01:30:10;10.63;;;6.33;;
4122;SDS011;2075;51.062;6.920;2023-12-20T01:32:56;11.10;;;6.90;;
4122;SDS011;2075;51.062;6.920;2023-12-20T01:35:41;12.50;;;7.53;;
4122;SDS011;2075;51.062;6.920;2023-12-20T01:38:28;20.40;;;7.70;;
4122;SDS011;2075;51.062;6.920;2023-12-20T01:41:13;13.63;;;7.60;;
4122;SDS011;2075;51.062;6.920;2023-12-20T01:43:58;16.67;;;7.37;;
4122;SDS011;2075;51.062;6.920;2023-12-20T01:46:44;11.07;;;6.53;;
4122;SDS011;2075;51.062;6.920;2023-12-20T01:49:30;13.80;;;6.70;;
4122;SDS011;2075;51.062;6.920;2023-12-20T01:52:15;16.50;;;6.90;;
4122;SDS011;2075;51.062;6.920;2023-12-20T01:55:03;13.60;;;6.53;;
4122;SDS011;2075;51.062;6.920;2023-12-20T01:57:57;13.43;;;6.60;;
4122;SDS011;2075;51.062;6.920;2023-12-20T02:00:43;14.70;;;6.90;;
4122;SDS011;2075;51.062;6.920;2023-12-20T02:03:29;10.53;;;6.40;;
4122;SDS011;2075;51.062;6.920;2023-12-20T02:06:15;11.90;;;6.33;;
4122;SDS011;2075;51.062;6.920;2023-12-20T02:09:02;13.03;;;5.57;;
4122;SDS011;2075;51.062;6.920;2023-12-20T02:11:49;11.50;;;5.83;;
4122;SDS011;2075;51.062;6.920;2023-12-20T02:14:34;13.33;;;6.20;;
4122;SDS011;2075;51.062;6.920;2023-12-20T02:17:19;10.67;;;5.50;;
4122;SDS011;2075;51.062;6.920;2023-12-20T02:20:05;14.13;;;5.47;;
4122;SDS011;2075;51.062;6.920;2023-12-20T02:22:53;25.83;;;6.30;;
4122;SDS011;2075;51.062;6.920;2023-12-20T02:25:38;14.37;;;5.90;;
4122;SDS011;2075;51.062;6.920;2023-12-20T02:28:25;11.80;;;6.40;;
4122;SDS011;2075;51.062;6.920;2023-12-20T02:31:11;18.93;;;6.13;;
4122;SDS011;2075;51.062;6.920;2023-12-20T02:33:56;14.87;;;5.90;;
4122;SDS011;2075;51.062;6.920;2023-12-20T02:36:42;11.00;;;5.50;;
4122;SDS011;2075;51.062;6.920;2023-12-20T02:39:29;23.17;;;6.23;;
4122;SDS011;2075;51.062;6.920;2023-12-20T02:42:15;16.00;;;5.53;;
4122;SDS011;2075;51.062;6.920;2023-12-20T02:45:00;16.57;;;5.20;;
4122;SDS011;2075;51.062;6.920;2023-12-20T02:47:46;15.30;;;5.50;;
4122;SDS011;2075;51.062;6.920;2023-12-20T02:50:31;14.67;;;5.07;;
4122;SDS011;2075;51.062;6.920;2023-12-20T02:53:17;12.00;;;4.63;;
4122;SDS011;2075;51.062;6.920;2023-12-20T02:56:04;14.43;;;4.60;;
4122;SDS011;2075;51.062;6.920;2023-12-20T02:58:50;22.07;;;4.90;;
4122;SDS011;2075;51.062;6.920;2023-12-20T03:01:35;13.17;;;4.43;;
4122;SDS011;2075;51.062;6.920;2023-12-20T03:04:27;11.83;;;4.03;;
4122;SDS011;2075;51.062;6.920;2023-12-20T03:07:12;11.80;;;4.20;;
4122;SDS011;2075;51.062;6.920;2023-12-20T03:09:57;17.83;;;3.70;;
4122;SDS011;2075;51.062;6.920;2023-12-20T03:12:44;16.90;;;3.67;;
4122;SDS011;2075;51.062;6.920;2023-12-20T03:15:29;11.33;;;3.20;;
4122;SDS011;2075;51.062;6.920;2023-12-20T03:18:15;13.83;;;2.67;;
4122;SDS011;2075;51.062;6.920;2023-12-20T03:21:00;11.50;;;3.37;;
4122;SDS011;2075;51.062;6.920;2023-12-20T03:23:46;6.87;;;2.90;;
4122;SDS011;2075;51.062;6.920;2023-12-20T03:26:31;14.00;;;3.23;;
4122;SDS011;2075;51.062;6.920;2023-12-20T03:29:18;10.53;;;3.27;;
4122;SDS011;2075;51.062;6.920;2023-12-20T03:32:03;10.50;;;3.73;;
4122;SDS011;2075;51.062;6.920;2023-12-20T03:34:49;33.10;;;5.83;;
4122;SDS011;2075;51.062;6.920;2023-12-20T03:37:35;13.13;;;3.37;;
4122;SDS011;2075;51.062;6.920;2023-12-20T03:40:26;17.70;;;3.37;;
4122;SDS011;2075;51.062;6.920;2023-12-20T03:43:11;11.47;;;4.67;;
4122;SDS011;2075;51.062;6.920;2023-12-20T03:45:58;7.23;;;4.20;;
4122;SDS011;2075;51.062;6.920;2023-12-20T03:48:44;14.80;;;4.30;;
4122;SDS011;2075;51.062;6.920;2023-12-20T03:51:30;13.37;;;3.60;;
4122;SDS011;2075;51.062;6.920;2023-12-20T03:54:15;20.17;;;4.10;;
4122;SDS011;2075;51.062;6.920;2023-12-20T03:57:00;13.57;;;3.90;;
4122;SDS011;2075;51.062;6.920;2023-12-20T03:59:46;11.97;;;4.07;;
4122;SDS011;2075;51.062;6.920;2023-12-20T04:02:33;21.70;;;4.47;;
4122;SDS011;2075;51.062;6.920;2023-12-20T04:05:20;16.73;;;4.43;;
4122;SDS011;2075;51.062;6.920;2023-12-20T04:08:06;11.80;;;3.40;;
4122;SDS011;2075;51.062;6.920;2023-12-20T04:10:52;12.60;;;3.27;;
4122;SDS011;2075;51.062;6.920;2023-12-20T04:13:37;11.63;;;4.27;;
4122;SDS011;2075;51.062;6.920;2023-12-20T04:16:23;19.33;;;4.50;;
4122;SDS011;2075;51.062;6.920;2023-12-20T04:19:10;13.03;;;4.10;;
4122;SDS011;2075;51.062;6.920;2023-12-20T04:21:56;15.90;;;4.03;;
4122;SDS011;2075;51.062;6.920;2023-12-20T04:24:41;19.00;;;5.13;;
4122;SDS011;2075;51.062;6.920;2023-12-20T04:27:26;23.60;;;4.50;;
4122;SDS011;2075;51.062;6.920;2023-12-20T04:30:12;15.97;;;3.40;;
4122;SDS011;2075;51.062;6.920;2023-12-20T04:32:58;12.33;;;4.17;;
4122;SDS011;2075;51.062;6.920;2023-12-20T04:35:45;12.20;;;3.67;;
4122;SDS011;2075;51.062;6.920;2023-12-20T04:38:30;9.90;;;5.03;;
4122;SDS011;2075;51.062;6.920;2023-12-20T04:41:16;17.13;;;4.40;;
4122;SDS011;2075;51.062;6.920;2023-12-20T04:44:03;12.87;;;3.53;;
4122;SDS011;2075;51.062;6.920;2023-12-20T04:46:48;20.93;;;4.93;;
4122;SDS011;2075;51.062;6.920;2023-12-20T04:49:34;16.90;;;4.70;;
4122;SDS011;2075;51.062;6.920;2023-12-20T04:52:21;15.57;;;4.37;;
4122;SDS011;2075;51.062;6.920;2023-12-20T04:55:07;16.10;;;4.50;;
4122;SDS011;2075;51.062;6.920;2023-12-20T04:57:54;16.33;;;4.67;;
4122;SDS011;2075;51.062;6.920;2023-12-20T05:00:42;13.37;;;4.60;;
4122;SDS011;2075;51.062;6.920;2023-12-20T05:03:30;14.10;;;5.57;;
4122;SDS011;2075;51.062;6.920;2023-12-20T05:06:26;15.40;;;4.20;;
4122;SDS011;2075;51.062;6.920;2023-12-20T05:09:15;25.90;;;5.53;;
4122;SDS011;2075;51.062;6.920;2023-12-20T05:12:01;21.23;;;4.87;;
4122;SDS011;2075;51.062;6.920;2023-12-20T05:14:49;9.53;;;4.20;;
4122;SDS011;2075;51.062;6.920;2023-12-20T05:17:36;21.77;;;4.13;;
4122;SDS011;2075;51.062;6.920;2023-12-20T05:20:24;14.90;;;4.20;;
4122;SDS011;2075;51.062;6.920;2023-12-20T05:23:11;12.90;;;4.27;;
4122;SDS011;2075;51.062;6.920;2023-12-20T05:26:00;18.73;;;5.00;;
4122;SDS011;2075;51.062;6.920;2023-12-20T05:28:46;14.27;;;4.40;;
4122;SDS011;2075;51.062;6.920;2023-12-20T05:31:32;11.67;;;4.37;;
4122;SDS011;2075;51.062;6.920;2023-12-20T05:34:19;25.43;;;5.23;;
4122;SDS011;2075;51.062;6.920;2023-12-20T05:37:05;21.90;;;4.43;;
4122;SDS011;2075;51.062;6.920;2023-12-20T05:39:51;18.77;;;5.30;;
4122;SDS011;2075;51.062;6.920;2023-12-20T05:42:42;16.40;;;5.67;;
4122;SDS011;2075;51.062;6.920;2023-12-20T05:45:29;20.13;;;4.97;;
4122;SDS011;2075;51.062;6.920;2023-12-20T05:48:14;9.33;;;4.20;;
4122;SDS011;2075;51.062;6.920;2023-12-20T05:51:00;18.97;;;4.93;;
4122;SDS011;2075;51.062;6.920;2023-12-20T05:53:45;11.90;;;4.20;;
4122;SDS011;2075;51.062;6.920;2023-12-20T05:56:31;12.37;;;4.27;;
4122;SDS011;2075;51.062;6.920;2023-12-20T05:59:18;15.70;;;5.17;;
4122;SDS011;2075;51.062;6.920;2023-12-20T06:02:07;16.00;;;4.37;;
4122;SDS011;2075;51.062;6.920;2023-12-20T06:04:53;23.63;;;4.20;;
4122;SDS011;2075;51.062;6.920;2023-12-20T06:07:38;12.77;;;4.47;;
4122;SDS011;2075;51.062;6.920;2023-12-20T06:10:24;19.17;;;5.20;;
4122;SDS011;2075;51.062;6.920;2023-12-20T06:13:17;15.23;;;4.30;;
4122;SDS011;2075;51.062;6.920;2023-12-20T06:16:05;15.03;;;4.90;;
4122;SDS011;2075;51.062;6.920;2023-12-20T06:18:51;14.60;;;4.87;;
4122;SDS011;2075;51.062;6.920;2023-12-20T06:21:38;15.53;;;5.17;;
4122;SDS011;2075;51.062;6.920;2023-12-20T06:24:26;11.13;;;3.67;;
4122;SDS011;2075;51.062;6.920;2023-12-20T06:27:12;12.87;;;4.20;;
4122;SDS011;2075;51.062;6.920;2023-12-20T06:29:57;15.70;;;4.70;;
4122;SDS011;2075;51.062;6.920;2023-12-20T06:32:44;24.53;;;4.47;;
4122;SDS011;2075;51.062;6.920;2023-12-20T06:35:31;12.13;;;4.47;;
4122;SDS011;2075;51.062;6.920;2023-12-20T06:38:17;17.27;;;4.73;;
4122;SDS011;2075;51.062;6.920;2023-12-20T06:41:04;14.93;;;5.10;;
4122;SDS011;2075;51.062;6.920;2023-12-20T06:43:49;25.07;;;7.17;;
4122;SDS011;2075;51.062;6.920;2023-12-20T06:46:35;12.03;;;4.90;;
4122;SDS011;2075;51.062;6.920;2023-12-20T06:49:22;12.43;;;4.63;;
4122;SDS011;2075;51.062;6.920;2023-12-20T06:52:08;14.40;;;4.87;;
4122;SDS011;2075;51.062;6.920;2023-12-20T06:54:53;20.13;;;6.17;;
4122;SDS011;2075;51.062;6.920;2023-12-20T06:57:38;15.97;;;4.33;;
4122;SDS011;2075;51.062;6.920;2023-12-20T07:00:24;13.40;;;3.57;;
4122;SDS011;2075;51.062;6.920;2023-12-20T07:03:10;10.57;;;3.83;;
4122;SDS011;2075;51.062;6.920;2023-12-20T07:05:57;19.23;;;5.03;;
4122;SDS011;2075;51.062;6.920;2023-12-20T07:08:42;9.40;;;4.20;;
4122;SDS011;2075;51.062;6.920;2023-12-20T07:11:27;12.30;;;4.03;;
4122;SDS011;2075;51.062;6.920;2023-12-20T07:14:13;13.40;;;4.23;;
4122;SDS011;2075;51.062;6.920;2023-12-20T07:16:58;13.27;;;4.80;;
4122;SDS011;2075;51.062;6.920;2023-12-20T07:19:44;23.87;;;5.20;;
4122;SDS011;2075;51.062;6.920;2023-12-20T07:22:33;23.27;;;5.37;;
4122;SDS011;2075;51.062;6.920;2023-12-20T07:25:18;15.10;;;4.33;;
4122;SDS011;2075;51.062;6.920;2023-12-20T07:28:05;20.87;;;5.90;;
4122;SDS011;2075;51.062;6.920;2023-12-20T07:30:50;15.83;;;4.60;;
4122;SDS011;2075;51.062;6.920;2023-12-20T07:33:36;11.70;;;3.70;;
4122;SDS011;2075;51.062;6.920;2023-12-20T07:36:22;12.00;;;3.80;;
4122;SDS011;2075;51.062;6.920;2023-12-20T07:39:09;13.57;;;5.57;;
4122;SDS011;2075;51.062;6.920;2023-12-20T07:41:55;17.87;;;4.47;;
4122;SDS011;2075;51.062;6.920;2023-12-20T07:44:42;10.77;;;4.43;;
4122;SDS011;2075;51.062;6.920;2023-12-20T07:47:28;15.13;;;4.50;;
4122;SDS011;2075;51.062;6.920;2023-12-20T07:50:14;14.73;;;4.87;;
4122;SDS011;2075;51.062;6.920;2023-12-20T07:53:00;13.50;;;4.53;;
4122;SDS011;2075;51.062;6.920;2023-12-20T07:55:49;21.23;;;5.10;;
4122;SDS011;2075;51.062;6.920;2023-12-20T07:58:36;27.13;;;6.37;;
4122;SDS011;2075;51.062;6.920;2023-12-20T08:01:22;24.93;;;5.10;;
4122;SDS011;2075;51.062;6.920;2023-12-20T08:04:08;18.47;;;5.27;;
4122;SDS011;2075;51.062;6.920;2023-12-20T08:06:54;15.20;;;4.50;;
4122;SDS011;2075;51.062;6.920;2023-12-20T08:09:39;18.47;;;5.63;;
4122;SDS011;2075;51.062;6.920;2023-12-20T08:12:26;17.27;;;5.27;;
4122;SDS011;2075;51.062;6.920;2023-12-20T08:15:12;28.70;;;6.10;;
4122;SDS011;2075;51.062;6.920;2023-12-20T08:17:58;16.00;;;5.23;;
4122;SDS011;2075;51.062;6.920;2023-12-20T08:20:47;12.50;;;4.67;;
4122;SDS011;2075;51.062;6.920;2023-12-20T08:23:33;30.43;;;5.80;;
4122;SDS011;2075;51.062;6.920;2023-12-20T08:26:18;13.03;;;5.17;;
4122;SDS011;2075;51.062;6.920;2023-12-20T08:29:07;15.67;;;5.70;;
4122;SDS011;2075;51.062;6.920;2023-12-20T08:31:52;15.50;;;5.07;;
4122;SDS011;2075;51.062;6.920;2023-12-20T08:34:38;13.53;;;5.53;;
4122;SDS011;2075;51.062;6.920;2023-12-20T08:37:24;18.40;;;5.40;;
4122;SDS011;2075;51.062;6.920;2023-12-20T08:40:09;6.70;;;4.23;;
4122;SDS011;2075;51.062;6.920;2023-12-20T08:42:56;16.57;;;4.87;;
4122;SDS011;2075;51.062;6.920;2023-12-20T08:45:43;13.50;;;4.47;;
4122;SDS011;2075;51.062;6.920;2023-12-20T08:48:28;18.50;;;4.90;;
4122;SDS011;2075;51.062;6.920;2023-12-20T08:51:14;17.77;;;4.47;;
4122;SDS011;2075;51.062;6.920;2023-12-20T08:54:00;15.60;;;4.27;;
4122;SDS011;2075;51.062;6.920;2023-12-20T08:56:45;18.23;;;5.83;;
4122;SDS011;2075;51.062;6.920;2023-12-20T08:59:31;22.80;;;4.90;;
4122;SDS011;2075;51.062;6.920;2023-12-20T09:02:18;15.70;;;4.67;;
4122;SDS011;2075;51.062;6.920;2023-12-20T09:05:04;27.43;;;4.67;;
4122;SDS011;2075;51.062;6.920;2023-12-20T09:07:50;15.33;;;4.70;;
4122;SDS011;2075;51.062;6.920;2023-12-20T09:10:37;21.30;;;4.83;;
4122;SDS011;2075;51.062;6.920;2023-12-20T09:13:23;13.80;;;4.07;;
4122;SDS011;2075;51.062;6.920;2023-12-20T09:16:12;13.20;;;4.60;;
4122;SDS011;2075;51.062;6.920;2023-12-20T09:19:01;10.47;;;4.30;;
4122;SDS011;2075;51.062;6.920;2023-12-20T09:21:46;12.20;;;4.80;;
4122;SDS011;2075;51.062;6.920;2023-12-20T09:24:32;22.00;;;4.57;;
4122;SDS011;2075;51.062;6.920;2023-12-20T09:27:19;17.03;;;4.10;;
4122;SDS011;2075;51.062;6.920;2023-12-20T09:30:05;12.80;;;4.10;;
4122;SDS011;2075;51.062;6.920;2023-12-20T09:32:51;16.20;;;4.47;;
4122;SDS011;2075;51.062;6.920;2023-12-20T09:35:39;17.73;;;3.93;;
4122;SDS011;2075;51.062;6.920;2023-12-20T09:38:25;8.27;;;4.30;;
4122;SDS011;2075;51.062;6.920;2023-12-20T09:41:11;13.90;;;3.97;;
4122;SDS011;2075;51.062;6.920;2023-12-20T09:43:56;16.07;;;3.93;;
4122;SDS011;2075;51.062;6.920;2023-12-20T09:46:44;11.80;;;3.93;;
4122;SDS011;2075;51.062;6.920;2023-12-20T09:49:31;11.30;;;3.83;;
4122;SDS011;2075;51.062;6.920;2023-12-20T09:52:20;11.97;;;3.70;;
4122;SDS011;2075;51.062;6.920;2023-12-20T09:55:08;16.03;;;4.60;;
4122;SDS011;2075;51.062;6.920;2023-12-20T09:57:54;10.30;;;3.60;;
4122;SDS011;2075;51.062;6.920;2023-12-20T10:00:40;12.73;;;3.70;;
4122;SDS011;2075;51.062;6.920;2023-12-20T10:03:27;13.70;;;3.80;;
4122;SDS011;2075;51.062;6.920;2023-12-20T10:06:15;12.93;;;3.80;;
4122;SDS011;2075;51.062;6.920;2023-12-20T10:09:03;16.70;;;4.50;;
4122;SDS011;2075;51.062;6.920;2023-12-20T10:11:49;12.83;;;3.47;;
4122;SDS011;2075;51.062;6.920;2023-12-20T10:14:39;14.87;;;3.17;;
4122;SDS011;2075;51.062;6.920;2023-12-20T10:17:24;8.50;;;3.07;;
4122;SDS011;2075;51.062;6.920;2023-12-20T10:20:13;12.90;;;3.83;;
4122;SDS011;2075;51.062;6.920;2023-12-20T10:23:00;16.10;;;4.47;;
4122;SDS011;2075;51.062;6.920;2023-12-20T10:25:57;11.57;;;4.20;;
4122;SDS011;2075;51.062;6.920;2023-12-20T10:28:43;13.07;;;3.93;;
4122;SDS011;2075;51.062;6.920;2023-12-20T10:31:29;11.60;;;3.13;;
4122;SDS011;2075;51.062;6.920;2023-12-20T10:34:17;11.77;;;3.30;;
4122;SDS011;2075;51.062;6.920;2023-12-20T10:37:03;11.73;;;3.20;;
4122;SDS011;2075;51.062;6.920;2023-12-20T10:39:50;16.50;;;4.50;;
4122;SDS011;2075;51.062;6.920;2023-12-20T10:42:41;9.50;;;3.47;;
4122;SDS011;2075;51.062;6.920;2023-12-20T10:45:27;15.43;;;4.20;;
4122;SDS011;2075;51.062;6.920;2023-12-20T10:48:14;15.43;;;3.77;;
4122;SDS011;2075;51.062;6.920;2023-12-20T10:51:01;13.73;;;3.77;;
4122;SDS011;2075;51.062;6.920;2023-12-20T10:53:50;12.83;;;4.00;;
4122;SDS011;2075;51.062;6.920;2023-12-20T10:56:37;9.53;;;3.37;;
4122;SDS011;2075;51.062;6.920;2023-12-20T10:59:26;9.27;;;3.70;;
4122;SDS011;2075;51.062;6.920;2023-12-20T11:02:15;16.20;;;4.27;;
4122;SDS011;2075;51.062;6.920;2023-12-20T11:05:04;14.73;;;4.70;;
4122;SDS011;2075;51.062;6.920;2023-12-20T11:07:58;16.33;;;3.80;;
4122;SDS011;2075;51.062;6.920;2023-12-20T11:10:49;11.83;;;3.60;;
4122;SDS011;2075;51.062;6.920;2023-12-20T11:13:43;18.40;;;4.60;;
4122;SDS011;2075;51.062;6.920;2023-12-20T11:16:40;16.27;;;6.20;;
4122;SDS011;2075;51.062;6.920;2023-12-20T11:19:26;16.90;;;4.63;;
4122;SDS011;2075;51.062;6.920;2023-12-20T11:22:12;9.75;;;3.42;;
4122;SDS011;2075;51.062;6.920;2023-12-20T11:25:02;12.10;;;3.20;;
4122;SDS011;2075;51.062;6.920;2023-12-20T11:31:06;10.05;;;3.70;;
4122;SDS011;2075;51.062;6.920;2023-12-20T11:33:56;8.80;;;3.37;;
4122;SDS011;2075;51.062;6.920;2023-12-20T11:36:59;14.80;;;4.50;;
4122;SDS011;2075;51.062;6.920;2023-12-20T11:39:45;10.73;;;4.00;;
4122;SDS011;2075;51.062;6.920;2023-12-20T11:42:40;15.20;;;3.73;;
4122;SDS011;2075;51.062;6.920;2023-12-20T11:45:26;15.32;;;4.50;;
4122;SDS011;2075;51.062;6.920;2023-12-20T11:48:13;18.30;;;4.53;;
4122;SDS011;2075;51.062;6.920;2023-12-20T11:51:01;10.43;;;3.43;;
4122;SDS011;2075;51.062;6.920;2023-12-20T11:53:51;15.30;;;3.57;;
4122;SDS011;2075;51.062;6.920;2023-12-20T11:56:37;12.43;;;3.63;;
4122;SDS011;2075;51.062;6.920;2023-12-20T11:59:23;9.80;;;3.30;;
4122;SDS011;2075;51.062;6.920;2023-12-20T12:02:11;17.37;;;4.63;;
4122;SDS011;2075;51.062;6.920;2023-12-20T12:05:00;14.70;;;3.50;;
4122;SDS011;2075;51.062;6.920;2023-12-20T12:07:48;8.80;;;3.30;;
4122;SDS011;2075;51.062;6.920;2023-12-20T12:10:34;13.67;;;3.67;;
4122;SDS011;2075;51.062;6.920;2023-12-20T12:13:23;8.67;;;2.87;;
4122;SDS011;2075;51.062;6.920;2023-12-20T12:16:11;11.30;;;3.80;;
4122;SDS011;2075;51.062;6.920;2023-12-20T12:18:57;12.83;;;4.40;;
4122;SDS011;2075;51.062;6.920;2023-12-20T12:21:49;15.20;;;4.40;;
4122;SDS011;2075;51.062;6.920;2023-12-20T12:24:36;11.23;;;4.80;;
4122;SDS011;2075;51.062;6.920;2023-12-20T12:27:22;12.17;;;4.30;;
4122;SDS011;2075;51.062;6.920;2023-12-20T12:30:09;16.20;;;4.10;;
4122;SDS011;2075;51.062;6.920;2023-12-20T12:32:56;16.40;;;5.43;;
4122;SDS011;2075;51.062;6.920;2023-12-20T12:35:43;18.53;;;5.13;;
4122;SDS011;2075;51.062;6.920;2023-12-20T12:38:29;14.33;;;3.60;;
4122;SDS011;2075;51.062;6.920;2023-12-20T12:41:18;7.43;;;4.53;;
4122;SDS011;2075;51.062;6.920;2023-12-20T12:44:06;19.93;;;4.60;;
4122;SDS011;2075;51.062;6.920;2023-12-20T12:46:52;12.10;;;5.20;;
4122;SDS011;2075;51.062;6.920;2023-12-20T12:49:40;13.00;;;4.67;;
4122;SDS011;2075;51.062;6.920;2023-12-20T12:52:26;12.80;;;4.23;;
4122;SDS011;2075;51.062;6.920;2023-12-20T12:55:12;21.13;;;4.60;;
4122;SDS011;2075;51.062;6.920;2023-12-20T12:58:01;13.83;;;5.03;;
4122;SDS011;2075;51.062;6.920;2023-12-20T13:00:47;16.73;;;5.13;;
4122;SDS011;2075;51.062;6.920;2023-12-20T13:03:34;14.43;;;4.47;;
4122;SDS011;2075;51.062;6.920;2023-12-20T13:06:20;13.60;;;4.57;;
4122;SDS011;2075;51.062;6.920;2023-12-20T13:09:06;12.90;;;4.60;;
4122;SDS011;2075;51.062;6.920;2023-12-20T13:11:53;12.53;;;5.17;;
4122;SDS011;2075;51.062;6.920;2023-12-20T13:14:42;14.20;;;4.40;;
4122;SDS011;2075;51.062;6.920;2023-12-20T13:17:29;16.07;;;5.57;;
4122;SDS011;2075;51.062;6.920;2023-12-20T13:20:15;16.58;;;6.25;;
4122;SDS011;2075;51.062;6.920;2023-12-20T13:23:04;12.23;;;5.60;;
4122;SDS011;2075;51.062;6.920;2023-12-20T13:25:52;16.70;;;5.67;;
4122;SDS011;2075;51.062;6.920;2023-12-20T13:28:38;18.10;;;5.88;;
4122;SDS011;2075;51.062;6.920;2023-12-20T13:31:25;17.20;;;5.50;;
4122;SDS011;2075;51.062;6.920;2023-12-20T13:34:12;11.03;;;4.30;;
4122;SDS011;2075;51.062;6.920;2023-12-20T13:36:57;17.13;;;5.63;;
4122;SDS011;2075;51.062;6.920;2023-12-20T13:39:45;18.00;;;5.60;;
4122;SDS011;2075;51.062;6.920;2023-12-20T13:42:31;16.40;;;4.73;;
4122;SDS011;2075;51.062;6.920;2023-12-20T13:45:17;13.07;;;4.20;;
4122;SDS011;2075;51.062;6.920;2023-12-20T13:48:05;11.10;;;3.67;;
4122;SDS011;2075;51.062;6.920;2023-12-20T13:50:52;9.20;;;4.07;;
4122;SDS011;2075;51.062;6.920;2023-12-20T13:53:38;11.80;;;4.03;;
4122;SDS011;2075;51.062;6.920;2023-12-20T13:56:24;13.03;;;4.33;;
4122;SDS011;2075;51.062;6.920;2023-12-20T13:59:10;16.40;;;3.87;;
4122;SDS011;2075;51.062;6.920;2023-12-20T14:01:56;6.30;;;3.60;;
4122;SDS011;2075;51.062;6.920;2023-12-20T14:04:44;13.13;;;5.00;;
4122;SDS011;2075;51.062;6.920;2023-12-20T14:07:30;12.07;;;4.75;;
4122;SDS011;2075;51.062;6.920;2023-12-20T14:10:16;13.10;;;4.70;;
4122;SDS011;2075;51.062;6.920;2023-12-20T14:13:03;11.67;;;5.10;;
4122;SDS011;2075;51.062;6.920;2023-12-20T14:15:49;11.25;;;4.70;;
4122;SDS011;2075;51.062;6.920;2023-12-20T14:18:35;10.60;;;4.17;;
4122;SDS011;2075;51.062;6.920;2023-12-20T14:21:23;12.15;;;4.80;;
4122;SDS011;2075;51.062;6.920;2023-12-20T14:24:10;10.07;;;4.03;;
4122;SDS011;2075;51.062;6.920;2023-12-20T14:26:58;18.23;;;4.10;;
4122;SDS011;2075;51.062;6.920;2023-12-20T14:29:46;12.33;;;3.73;;
4122;SDS011;2075;51.062;6.920;2023-12-20T14:32:34;12.87;;;4.43;;
4122;SDS011;2075;51.062;6.920;2023-12-20T14:35:22;13.18;;;5.00;;
4122;SDS011;2075;51.062;6.920;2023-12-20T14:38:10;15.85;;;5.90;;
4122;SDS011;2075;51.062;6.920;2023-12-20T14:40:58;11.90;;;5.37;;
4122;SDS011;2075;51.062;6.920;2023-12-20T14:43:47;9.65;;;4.85;;
4122;SDS011;2075;51.062;6.920;2023-12-20T14:46:34;17.70;;;4.30;;
4122;SDS011;2075;51.062;6.920;2023-12-20T14:49:22;8.93;;;4.20;;
4122;SDS011;2075;51.062;6.920;2023-12-20T14:52:08;11.73;;;5.15;;
4122;SDS011;2075;51.062;6.920;2023-12-20T14:54:56;10.07;;;5.00;;
4122;SDS011;2075;51.062;6.920;2023-12-20T14:57:42;8.83;;;4.83;;
4122;SDS011;2075;51.062;6.920;2023-12-20T15:00:28;13.80;;;4.40;;
4122;SDS011;2075;51.062;6.920;2023-12-20T15:03:16;9.10;;;4.20;;
4122;SDS011;2075;51.062;6.920;2023-12-20T15:06:02;12.40;;;4.17;;
4122;SDS011;2075;51.062;6.920;2023-12-20T15:08:49;10.00;;;4.30;;
4122;SDS011;2075;51.062;6.920;2023-12-20T15:11:38;15.27;;;5.07;;
4122;SDS011;2075;51.062;6.920;2023-12-20T15:14:23;14.53;;;4.27;;
4122;SDS011;2075;51.062;6.920;2023-12-20T15:17:10;11.73;;;5.30;;
4122;SDS011;2075;51.062;6.920;2023-12-20T15:19:59;11.90;;;4.67;;
4122;SDS011;2075;51.062;6.920;2023-12-20T15:22:45;9.30;;;4.70;;
4122;SDS011;2075;51.062;6.920;2023-12-20T15:25:31;15.50;;;4.50;;
4122;SDS011;2075;51.062;6.920;2023-12-20T15:28:20;10.43;;;4.43;;
4122;SDS011;2075;51.062;6.920;2023-12-20T15:31:06;14.20;;;4.53;;
4122;SDS011;2075;51.062;6.920;2023-12-20T15:33:53;13.83;;;4.70;;
4122;SDS011;2075;51.062;6.920;2023-12-20T15:36:40;11.90;;;4.47;;
4122;SDS011;2075;51.062;6.920;2023-12-20T15:39:27;13.80;;;3.97;;
4122;SDS011;2075;51.062;6.920;2023-12-20T15:42:13;7.93;;;4.13;;
4122;SDS011;2075;51.062;6.920;2023-12-20T15:45:01;8.93;;;4.07;;
4122;SDS011;2075;51.062;6.920;2023-12-20T15:47:47;9.73;;;4.53;;
4122;SDS011;2075;51.062;6.920;2023-12-20T15:50:35;11.30;;;4.50;;
4122;SDS011;2075;51.062;6.920;2023-12-20T15:53:20;12.90;;;4.30;;
4122;SDS011;2075;51.062;6.920;2023-12-20T15:56:07;14.03;;;4.20;;
4122;SDS011;2075;51.062;6.920;2023-12-20T15:58:53;12.03;;;4.50;;
4122;SDS011;2075;51.062;6.920;2023-12-20T16:01:42;18.67;;;4.47;;
4122;SDS011;2075;51.062;6.920;2023-12-20T16:04:28;8.50;;;4.67;;
4122;SDS011;2075;51.062;6.920;2023-12-20T16:07:14;15.33;;;5.10;;
4122;SDS011;2075;51.062;6.920;2023-12-20T16:09:59;8.17;;;4.73;;
4122;SDS011;2075;51.062;6.920;2023-12-20T16:12:45;12.80;;;4.50;;
4122;SDS011;2075;51.062;6.920;2023-12-20T16:15:32;13.67;;;4.50;;
4122;SDS011;2075;51.062;6.920;2023-12-20T16:18:20;10.73;;;4.70;;
4122;SDS011;2075;51.062;6.920;2023-12-20T16:21:06;22.77;;;4.60;;
4122;SDS011;2075;51.062;6.920;2023-12-20T16:23:51;15.53;;;4.87;;
4122;SDS011;2075;51.062;6.920;2023-12-20T16:26:37;11.20;;;4.17;;
4122;SDS011;2075;51.062;6.920;2023-12-20T16:29:22;13.10;;;4.60;;
4122;SDS011;2075;51.062;6.920;2023-12-20T16:32:08;13.70;;;5.13;;
4122;SDS011;2075;51.062;6.920;2023-12-20T16:34:55;8.77;;;4.73;;
4122;SDS011;2075;51.062;6.920;2023-12-20T16:37:41;13.70;;;5.80;;
4122;SDS011;2075;51.062;6.920;2023-12-20T16:40:26;13.53;;;5.37;;
4122;SDS011;2075;51.062;6.920;2023-12-20T16:43:13;15.03;;;4.83;;
4122;SDS011;2075;51.062;6.920;2023-12-20T16:45:59;11.57;;;5.40;;
4122;SDS011;2075;51.062;6.920;2023-12-20T16:48:45;11.33;;;5.53;;
4122;SDS011;2075;51.062;6.920;2023-12-20T16:51:31;21.57;;;5.27;;
4122;SDS011;2075;51.062;6.920;2023-12-20T16:54:18;13.37;;;5.60;;
4122;SDS011;2075;51.062;6.920;2023-12-20T16:57:04;17.60;;;5.20;;
4122;SDS011;2075;51.062;6.920;2023-12-20T16:59:50;18.07;;;5.70;;
4122;SDS011;2075;51.062;6.920;2023-12-20T17:02:36;17.60;;;5.80;;
4122;SDS011;2075;51.062;6.920;2023-12-20T17:05:23;8.93;;;5.10;;